sensor_id;sensor_type;location;lat;lon;timestamp;pressure;altitude;pressure_sealevel;temperature;humidity
31044;BME280;17710;52.520;13.352;2024-02-26T00:02:08;100108.06;;;10.11;60.91
31044;BME280;17710;52.520;13.352;2024-02-26T00:04:34;100099.56;;;10.25;60.39
31044;BME280;17710;52.520;13.352;2024-02-26T00:07:01;100094.88;;;10.31;60.06
31044;BME280;17710;52.520;13.352;2024-02-26T00:09:27;100101.63;;;10.18;60.32
31044;BME280;17710;52.520;13.352;2024-02-26T00:11:54;100095.97;;;9.65;62.36
31044;BME280;17710;52.520;13.352;2024-02-26T00:14:21;100098.59;;;9.65;62.74
31044;BME280;17710;52.520;13.352;2024-02-26T00:16:48;100090.31;;;9.74;62.61
31044;BME280;17710;52.520;13.352;2024-02-26T00:19:15;100083.66;;;10.06;61.50
31044;BME280;17710;52.520;13.352;2024-02-26T00:21:41;100092.94;;;9.74;62.35
31044;BME280;17710;52.520;13.352;2024-02-26T00:24:08;100090.78;;;9.64;62.86
31044;BME280;17710;52.520;13.352;2024-02-26T00:26:34;100102.03;;;9.67;62.66
31044;BME280;17710;52.520;13.352;2024-02-26T00:29:01;100092.97;;;9.94;62.09
31044;BME280;17710;52.520;13.352;2024-02-26T00:31:28;100093.22;;;9.68;62.48
31044;BME280;17710;52.520;13.352;2024-02-26T00:33:55;100088.84;;;9.67;62.16
31044;BME280;17710;52.520;13.352;2024-02-26T00:36:22;100087.00;;;9.49;62.64
31044;BME280;17710;52.520;13.352;2024-02-26T00:38:48;100094.97;;;9.26;63.75
31044;BME280;17710;52.520;13.352;2024-02-26T00:41:17;100091.59;;;9.22;65.16
31044;BME280;17710;52.520;13.352;2024-02-26T00:43:43;100089.16;;;8.96;65.86
31044;BME280;17710;52.520;13.352;2024-02-26T00:46:10;100085.88;;;9.33;64.47
31044;BME280;17710;52.520;13.352;2024-02-26T00:48:37;100080.34;;;9.18;64.83
31044;BME280;17710;52.520;13.352;2024-02-26T00:51:06;100077.31;;;9.28;64.79
31044;BME280;17710;52.520;13.352;2024-02-26T00:53:33;100077.34;;;9.48;63.95
31044;BME280;17710;52.520;13.352;2024-02-26T00:56:00;100074.69;;;9.28;64.25
31044;BME280;17710;52.520;13.352;2024-02-26T00:58:27;100073.50;;;9.35;64.33
31044;BME280;17710;52.520;13.352;2024-02-26T01:00:53;100075.78;;;9.44;64.16
31044;BME280;17710;52.520;13.352;2024-02-26T01:03:20;100068.25;;;9.13;64.94
31044;BME280;17710;52.520;13.352;2024-02-26T01:05:47;100073.72;;;9.30;65.02
31044;BME280;17710;52.520;13.352;2024-02-26T01:08:14;100074.06;;;9.21;65.24
31044;BME280;17710;52.520;13.352;2024-02-26T01:10:41;100084.19;;;9.10;65.58
31044;BME280;17710;52.520;13.352;2024-02-26T01:13:07;100076.22;;;9.11;65.99
31044;BME280;17710;52.520;13.352;2024-02-26T01:15:34;100074.63;;;8.86;67.65
31044;BME280;17710;52.520;13.352;2024-02-26T01:18:00;100070.75;;;8.94;67.11
31044;BME280;17710;52.520;13.352;2024-02-26T01:20:27;100079.22;;;9.02;66.74
31044;BME280;17710;52.520;13.352;2024-02-26T01:22:53;100079.47;;;8.96;67.27
31044;BME280;17710;52.520;13.352;2024-02-26T01:25:21;100075.53;;;8.85;67.28
31044;BME280;17710;52.520;13.352;2024-02-26T01:27:47;100079.81;;;8.87;67.03
31044;BME280;17710;52.520;13.352;2024-02-26T01:30:13;100075.97;;;9.17;67.06
31044;BME280;17710;52.520;13.352;2024-02-26T01:32:41;100081.13;;;8.99;67.46
31044;BME280;17710;52.520;13.352;2024-02-26T01:35:08;100081.84;;;9.02;67.54
31044;BME280;17710;52.520;13.352;2024-02-26T01:37:37;100078.91;;;8.88;68.33
31044;BME280;17710;52.520;13.352;2024-02-26T01:40:04;100066.91;;;9.25;66.68
31044;BME280;17710;52.520;13.352;2024-02-26T01:42:32;100059.44;;;9.56;65.60
31044;BME280;17710;52.520;13.352;2024-02-26T01:44:58;100047.66;;;9.65;65.19
31044;BME280;17710;52.520;13.352;2024-02-26T01:47:26;100048.25;;;9.71;64.70
31044;BME280;17710;52.520;13.352;2024-02-26T01:49:53;100049.22;;;9.89;64.66
31044;BME280;17710;52.520;13.352;2024-02-26T01:52:20;100049.28;;;9.87;64.03
31044;BME280;17710;52.520;13.352;2024-02-26T01:54:47;100065.50;;;9.38;65.79
31044;BME280;17710;52.520;13.352;2024-02-26T01:57:15;100061.19;;;9.13;67.83
31044;BME280;17710;52.520;13.352;2024-02-26T01:59:43;100065.75;;;9.32;67.21
31044;BME280;17710;52.520;13.352;2024-02-26T02:02:11;100069.84;;;9.17;67.93
31044;BME280;17710;52.520;13.352;2024-02-26T02:04:39;100074.63;;;8.86;68.75
31044;BME280;17710;52.520;13.352;2024-02-26T02:07:05;100068.41;;;8.87;69.00
31044;BME280;17710;52.520;13.352;2024-02-26T02:09:32;100069.41;;;8.84;69.37
31044;BME280;17710;52.520;13.352;2024-02-26T02:11:58;100074.53;;;8.87;68.94
31044;BME280;17710;52.520;13.352;2024-02-26T02:14:25;100074.06;;;8.99;68.89
31044;BME280;17710;52.520;13.352;2024-02-26T02:16:53;100071.84;;;8.89;68.82
31044;BME280;17710;52.520;13.352;2024-02-26T02:19:19;100053.19;;;9.16;67.97
31044;BME280;17710;52.520;13.352;2024-02-26T02:21:47;100058.41;;;9.18;67.10
31044;BME280;17710;52.520;13.352;2024-02-26T02:24:13;100057.41;;;8.99;67.69
31044;BME280;17710;52.520;13.352;2024-02-26T02:26:40;100071.56;;;8.96;67.96
31044;BME280;17710;52.520;13.352;2024-02-26T02:29:07;100071.78;;;8.68;69.37
31044;BME280;17710;52.520;13.352;2024-02-26T02:31:34;100063.88;;;8.68;69.55
31044;BME280;17710;52.520;13.352;2024-02-26T02:34:01;100068.94;;;8.73;69.70
31044;BME280;17710;52.520;13.352;2024-02-26T02:36:27;100066.78;;;8.84;68.75
31044;BME280;17710;52.520;13.352;2024-02-26T02:38:55;100066.47;;;8.92;68.53
31044;BME280;17710;52.520;13.352;2024-02-26T02:41:21;100071.28;;;8.80;68.74
31044;BME280;17710;52.520;13.352;2024-02-26T02:43:47;100066.56;;;8.67;69.12
31044;BME280;17710;52.520;13.352;2024-02-26T02:46:14;100068.75;;;8.56;69.50
31044;BME280;17710;52.520;13.352;2024-02-26T02:48:41;100065.00;;;8.85;68.58
31044;BME280;17710;52.520;13.352;2024-02-26T02:51:07;100067.63;;;8.85;68.53
31044;BME280;17710;52.520;13.352;2024-02-26T02:53:34;100071.19;;;8.84;69.00
31044;BME280;17710;52.520;13.352;2024-02-26T02:56:02;100072.56;;;8.70;69.21
31044;BME280;17710;52.520;13.352;2024-02-26T02:58:28;100080.09;;;8.79;69.54
31044;BME280;17710;52.520;13.352;2024-02-26T03:00:54;100085.13;;;8.64;69.91
31044;BME280;17710;52.520;13.352;2024-02-26T03:03:21;100076.53;;;8.59;69.96
31044;BME280;17710;52.520;13.352;2024-02-26T03:05:49;100080.97;;;8.80;69.17
31044;BME280;17710;52.520;13.352;2024-02-26T03:08:15;100074.41;;;8.68;69.43
31044;BME280;17710;52.520;13.352;2024-02-26T03:10:41;100085.22;;;8.61;69.81
31044;BME280;17710;52.520;13.352;2024-02-26T03:13:10;100089.22;;;8.48;70.23
31044;BME280;17710;52.520;13.352;2024-02-26T03:15:36;100090.50;;;8.37;70.93
31044;BME280;17710;52.520;13.352;2024-02-26T03:18:03;100092.38;;;8.34;71.45
31044;BME280;17710;52.520;13.352;2024-02-26T03:20:30;100083.50;;;8.36;72.25
31044;BME280;17710;52.520;13.352;2024-02-26T03:22:56;100085.22;;;8.61;70.76
31044;BME280;17710;52.520;13.352;2024-02-26T03:25:22;100075.06;;;8.52;70.81
31044;BME280;17710;52.520;13.352;2024-02-26T03:27:49;100083.59;;;8.58;71.21
31044;BME280;17710;52.520;13.352;2024-02-26T03:30:17;100082.72;;;8.58;71.15
31044;BME280;17710;52.520;13.352;2024-02-26T03:32:43;100078.03;;;8.43;71.79
31044;BME280;17710;52.520;13.352;2024-02-26T03:35:09;100077.66;;;8.75;70.81
31044;BME280;17710;52.520;13.352;2024-02-26T03:37:36;100081.00;;;8.57;71.89
31044;BME280;17710;52.520;13.352;2024-02-26T03:40:03;100068.88;;;8.98;70.79
31044;BME280;17710;52.520;13.352;2024-02-26T03:42:29;100073.94;;;9.02;70.76
31044;BME280;17710;52.520;13.352;2024-02-26T03:44:55;100072.06;;;8.84;71.26
31044;BME280;17710;52.520;13.352;2024-02-26T03:47:23;100079.28;;;8.79;71.55
31044;BME280;17710;52.520;13.352;2024-02-26T03:49:49;100078.72;;;8.71;71.76
31044;BME280;17710;52.520;13.352;2024-02-26T03:52:16;100089.53;;;9.08;70.89
31044;BME280;17710;52.520;13.352;2024-02-26T03:54:42;100086.56;;;8.72;71.72
31044;BME280;17710;52.520;13.352;2024-02-26T03:57:08;100086.94;;;9.07;70.91
31044;BME280;17710;52.520;13.352;2024-02-26T03:59:35;100090.97;;;8.72;71.36
31044;BME280;17710;52.520;13.352;2024-02-26T04:02:02;100101.03;;;8.84;71.64
31044;BME280;17710;52.520;13.352;2024-02-26T04:04:29;100089.59;;;8.62;71.63
31044;BME280;17710;52.520;13.352;2024-02-26T04:06:56;100099.41;;;8.80;71.48
31044;BME280;17710;52.520;13.352;2024-02-26T04:09:22;100102.75;;;8.85;70.75
31044;BME280;17710;52.520;13.352;2024-02-26T04:11:48;100101.50;;;8.72;71.59
31044;BME280;17710;52.520;13.352;2024-02-26T04:14:15;100095.91;;;8.79;71.38
31044;BME280;17710;52.520;13.352;2024-02-26T04:16:41;100098.16;;;8.67;71.97
31044;BME280;17710;52.520;13.352;2024-02-26T04:19:08;100110.59;;;8.63;72.21
31044;BME280;17710;52.520;13.352;2024-02-26T04:21:36;100101.84;;;8.63;72.52
31044;BME280;17710;52.520;13.352;2024-02-26T04:24:03;100105.50;;;8.59;72.63
31044;BME280;17710;52.520;13.352;2024-02-26T04:26:30;100111.41;;;8.65;72.39
31044;BME280;17710;52.520;13.352;2024-02-26T04:28:56;100115.19;;;8.58;72.41
31044;BME280;17710;52.520;13.352;2024-02-26T04:31:25;100112.75;;;8.75;71.77
31044;BME280;17710;52.520;13.352;2024-02-26T04:33:52;100116.97;;;8.58;72.58
31044;BME280;17710;52.520;13.352;2024-02-26T04:36:19;100110.66;;;8.62;72.45
31044;BME280;17710;52.520;13.352;2024-02-26T04:38:46;100119.00;;;8.73;72.15
31044;BME280;17710;52.520;13.352;2024-02-26T04:41:13;100127.84;;;8.72;71.86
31044;BME280;17710;52.520;13.352;2024-02-26T04:43:39;100120.47;;;8.80;71.81
31044;BME280;17710;52.520;13.352;2024-02-26T04:46:06;100128.16;;;8.86;71.47
31044;BME280;17710;52.520;13.352;2024-02-26T04:48:33;100130.47;;;8.72;71.87
31044;BME280;17710;52.520;13.352;2024-02-26T04:50:59;100137.38;;;8.74;71.84
31044;BME280;17710;52.520;13.352;2024-02-26T04:53:26;100134.22;;;8.88;71.46
31044;BME280;17710;52.520;13.352;2024-02-26T04:55:54;100138.59;;;8.89;71.55
31044;BME280;17710;52.520;13.352;2024-02-26T04:58:20;100135.44;;;8.79;71.75
31044;BME280;17710;52.520;13.352;2024-02-26T05:00:46;100132.53;;;8.64;71.85
31044;BME280;17710;52.520;13.352;2024-02-26T05:03:11;100133.56;;;8.83;71.28
31044;BME280;17710;52.520;13.352;2024-02-26T05:05:40;100134.56;;;9.02;70.96
31044;BME280;17710;52.520;13.352;2024-02-26T05:08:07;100136.47;;;8.99;70.21
31044;BME280;17710;52.520;13.352;2024-02-26T05:10:33;100144.25;;;9.02;70.51
31044;BME280;17710;52.520;13.352;2024-02-26T05:13:05;100140.31;;;8.90;70.87
31044;BME280;17710;52.520;13.352;2024-02-26T05:15:31;100149.84;;;8.93;70.91
31044;BME280;17710;52.520;13.352;2024-02-26T05:17:58;100145.13;;;8.79;71.11
31044;BME280;17710;52.520;13.352;2024-02-26T05:20:25;100139.38;;;8.68;71.62
31044;BME280;17710;52.520;13.352;2024-02-26T05:22:51;100153.31;;;8.95;71.15
31044;BME280;17710;52.520;13.352;2024-02-26T05:25:18;100153.00;;;8.56;72.11
31044;BME280;17710;52.520;13.352;2024-02-26T05:27:45;100159.44;;;8.95;70.76
31044;BME280;17710;52.520;13.352;2024-02-26T05:30:13;100159.00;;;8.84;71.08
31044;BME280;17710;52.520;13.352;2024-02-26T05:32:40;100165.56;;;8.96;71.13
31044;BME280;17710;52.520;13.352;2024-02-26T05:35:07;100158.81;;;8.65;71.99
31044;BME280;17710;52.520;13.352;2024-02-26T05:37:33;100156.09;;;8.67;72.17
31044;BME280;17710;52.520;13.352;2024-02-26T05:40:00;100160.41;;;8.69;71.71
31044;BME280;17710;52.520;13.352;2024-02-26T05:42:26;100158.97;;;8.61;72.23
31044;BME280;17710;52.520;13.352;2024-02-26T05:44:52;100167.84;;;9.05;71.32
31044;BME280;17710;52.520;13.352;2024-02-26T05:47:20;100173.66;;;8.91;71.56
31044;BME280;17710;52.520;13.352;2024-02-26T05:49:46;100169.78;;;9.23;70.52
31044;BME280;17710;52.520;13.352;2024-02-26T05:52:14;100171.25;;;9.52;69.48
31044;BME280;17710;52.520;13.352;2024-02-26T05:54:40;100178.28;;;9.08;70.27
31044;BME280;17710;52.520;13.352;2024-02-26T05:57:06;100176.00;;;9.44;69.52
31044;BME280;17710;52.520;13.352;2024-02-26T05:59:33;100180.00;;;9.52;69.30
31044;BME280;17710;52.520;13.352;2024-02-26T06:01:59;100184.13;;;9.59;68.65
31044;BME280;17710;52.520;13.352;2024-02-26T06:04:27;100194.63;;;9.61;68.17
31044;BME280;17710;52.520;13.352;2024-02-26T06:06:53;100178.28;;;9.73;68.01
31044;BME280;17710;52.520;13.352;2024-02-26T06:09:19;100187.81;;;9.77;67.96
31044;BME280;17710;52.520;13.352;2024-02-26T06:11:46;100191.06;;;9.62;68.01
31044;BME280;17710;52.520;13.352;2024-02-26T06:14:12;100189.00;;;9.70;68.12
31044;BME280;17710;52.520;13.352;2024-02-26T06:16:43;100192.66;;;9.66;68.04
31044;BME280;17710;52.520;13.352;2024-02-26T06:19:09;100190.09;;;9.43;68.90
31044;BME280;17710;52.520;13.352;2024-02-26T06:21:37;100197.25;;;9.61;68.45
31044;BME280;17710;52.520;13.352;2024-02-26T06:24:04;100191.56;;;9.50;69.01
31044;BME280;17710;52.520;13.352;2024-02-26T06:26:30;100196.16;;;9.67;68.50
31044;BME280;17710;52.520;13.352;2024-02-26T06:28:58;100201.63;;;9.62;68.17
31044;BME280;17710;52.520;13.352;2024-02-26T06:31:25;100199.91;;;9.83;68.28
31044;BME280;17710;52.520;13.352;2024-02-26T06:33:52;100198.63;;;9.71;68.14
31044;BME280;17710;52.520;13.352;2024-02-26T06:36:19;100204.44;;;9.79;67.78
31044;BME280;17710;52.520;13.352;2024-02-26T06:38:46;100203.75;;;9.96;67.52
31044;BME280;17710;52.520;13.352;2024-02-26T06:41:14;100211.06;;;9.89;67.46
31044;BME280;17710;52.520;13.352;2024-02-26T06:43:40;100208.13;;;9.97;67.27
31044;BME280;17710;52.520;13.352;2024-02-26T06:46:07;100204.97;;;10.09;67.14
31044;BME280;17710;52.520;13.352;2024-02-26T06:48:33;100209.69;;;10.01;67.26
31044;BME280;17710;52.520;13.352;2024-02-26T06:51:02;100214.28;;;10.18;66.87
31044;BME280;17710;52.520;13.352;2024-02-26T06:53:28;100223.34;;;10.32;66.39
31044;BME280;17710;52.520;13.352;2024-02-26T06:55:56;100226.25;;;10.26;66.70
31044;BME280;17710;52.520;13.352;2024-02-26T06:58:22;100226.19;;;10.28;66.96
31044;BME280;17710;52.520;13.352;2024-02-26T07:00:49;100235.56;;;10.35;66.28
31044;BME280;17710;52.520;13.352;2024-02-26T07:03:15;100235.41;;;10.18;66.55
31044;BME280;17710;52.520;13.352;2024-02-26T07:05:42;100234.78;;;10.53;66.38
31044;BME280;17710;52.520;13.352;2024-02-26T07:08:10;100235.47;;;10.57;65.75
31044;BME280;17710;52.520;13.352;2024-02-26T07:10:36;100237.94;;;10.61;65.68
31044;BME280;17710;52.520;13.352;2024-02-26T07:13:04;100243.00;;;10.86;64.98
31044;BME280;17710;52.520;13.352;2024-02-26T07:15:30;100243.56;;;10.74;64.86
31044;BME280;17710;52.520;13.352;2024-02-26T07:17:58;100250.06;;;10.86;64.97
31044;BME280;17710;52.520;13.352;2024-02-26T07:20:28;100241.75;;;10.95;64.26
31044;BME280;17710;52.520;13.352;2024-02-26T07:22:54;100242.03;;;10.89;64.60
31044;BME280;17710;52.520;13.352;2024-02-26T07:25:20;100247.19;;;11.10;64.07
31044;BME280;17710;52.520;13.352;2024-02-26T07:27:47;100241.75;;;10.95;64.23
31044;BME280;17710;52.520;13.352;2024-02-26T07:30:15;100244.75;;;11.06;64.22
31044;BME280;17710;52.520;13.352;2024-02-26T07:32:42;100249.91;;;11.09;63.75
31044;BME280;17710;52.520;13.352;2024-02-26T07:35:08;100249.84;;;11.29;63.34
31044;BME280;17710;52.520;13.352;2024-02-26T07:37:35;100252.69;;;11.06;63.95
31044;BME280;17710;52.520;13.352;2024-02-26T07:40:01;100247.91;;;11.14;63.56
31044;BME280;17710;52.520;13.352;2024-02-26T07:42:28;100244.75;;;11.43;62.79
31044;BME280;17710;52.520;13.352;2024-02-26T07:44:54;100243.56;;;11.50;61.97
31044;BME280;17710;52.520;13.352;2024-02-26T07:47:22;100239.19;;;11.49;62.30
31044;BME280;17710;52.520;13.352;2024-02-26T07:49:49;100238.63;;;11.62;61.84
31044;BME280;17710;52.520;13.352;2024-02-26T07:52:15;100240.56;;;11.58;61.83
31044;BME280;17710;52.520;13.352;2024-02-26T07:54:41;100250.09;;;11.81;61.28
31044;BME280;17710;52.520;13.352;2024-02-26T07:57:08;100242.72;;;12.05;60.39
31044;BME280;17710;52.520;13.352;2024-02-26T07:59:34;100249.97;;;12.18;59.83
31044;BME280;17710;52.520;13.352;2024-02-26T08:02:01;100237.66;;;12.17;59.58
31044;BME280;17710;52.520;13.352;2024-02-26T08:04:29;100246.28;;;12.04;60.49
31044;BME280;17710;52.520;13.352;2024-02-26T08:06:56;100246.78;;;12.29;59.66
31044;BME280;17710;52.520;13.352;2024-02-26T08:09:22;100249.22;;;12.33;59.01
31044;BME280;17710;52.520;13.352;2024-02-26T08:11:48;100247.13;;;12.40;58.74
31044;BME280;17710;52.520;13.352;2024-02-26T08:14:15;100244.16;;;12.46;58.52
31044;BME280;17710;52.520;13.352;2024-02-26T08:16:41;100249.81;;;12.56;58.31
31044;BME280;17710;52.520;13.352;2024-02-26T08:19:07;100248.75;;;12.43;58.98
31044;BME280;17710;52.520;13.352;2024-02-26T08:21:36;100244.53;;;12.56;58.76
31044;BME280;17710;52.520;13.352;2024-02-26T08:24:03;100256.50;;;12.80;57.80
31044;BME280;17710;52.520;13.352;2024-02-26T08:26:30;100248.59;;;12.46;58.61
31044;BME280;17710;52.520;13.352;2024-02-26T08:28:56;100253.69;;;12.83;57.86
31044;BME280;17710;52.520;13.352;2024-02-26T08:31:23;100252.53;;;12.89;57.44
31044;BME280;17710;52.520;13.352;2024-02-26T08:33:50;100251.31;;;13.11;56.40
31044;BME280;17710;52.520;13.352;2024-02-26T08:36:16;100253.06;;;13.28;55.66
31044;BME280;17710;52.520;13.352;2024-02-26T08:38:44;100255.66;;;13.61;54.75
31044;BME280;17710;52.520;13.352;2024-02-26T08:41:10;100252.16;;;13.76;54.22
31044;BME280;17710;52.520;13.352;2024-02-26T08:43:37;100257.75;;;13.72;54.39
31044;BME280;17710;52.520;13.352;2024-02-26T08:46:03;100258.09;;;14.11;53.32
31044;BME280;17710;52.520;13.352;2024-02-26T08:48:30;100246.50;;;13.82;53.38
31044;BME280;17710;52.520;13.352;2024-02-26T08:50:56;100251.38;;;13.90;53.50
31044;BME280;17710;52.520;13.352;2024-02-26T08:53:23;100247.66;;;14.08;53.25
31044;BME280;17710;52.520;13.352;2024-02-26T08:55:53;100249.69;;;14.19;52.08
31044;BME280;17710;52.520;13.352;2024-02-26T08:58:19;100243.09;;;14.42;51.78
31044;BME280;17710;52.520;13.352;2024-02-26T09:00:46;100237.16;;;14.66;51.28
31044;BME280;17710;52.520;13.352;2024-02-26T09:03:12;100241.94;;;14.46;51.45
31044;BME280;17710;52.520;13.352;2024-02-26T09:05:38;100234.88;;;14.60;51.08
31044;BME280;17710;52.520;13.352;2024-02-26T09:08:06;100236.25;;;14.96;50.24
31044;BME280;17710;52.520;13.352;2024-02-26T09:10:32;100242.31;;;15.12;49.36
31044;BME280;17710;52.520;13.352;2024-02-26T09:13:00;100242.22;;;15.28;49.40
31044;BME280;17710;52.520;13.352;2024-02-26T09:15:26;100234.81;;;15.19;49.27
31044;BME280;17710;52.520;13.352;2024-02-26T09:17:53;100248.50;;;15.41;48.73
31044;BME280;17710;52.520;13.352;2024-02-26T09:20:19;100237.06;;;15.25;48.54
31044;BME280;17710;52.520;13.352;2024-02-26T09:22:46;100238.16;;;15.08;48.32
31044;BME280;17710;52.520;13.352;2024-02-26T09:25:13;100240.34;;;15.01;48.98
31044;BME280;17710;52.520;13.352;2024-02-26T09:27:41;100247.78;;;14.66;50.15
31044;BME280;17710;52.520;13.352;2024-02-26T09:30:10;100252.13;;;14.53;50.12
31044;BME280;17710;52.520;13.352;2024-02-26T09:32:36;100248.66;;;14.67;50.21
31044;BME280;17710;52.520;13.352;2024-02-26T09:35:03;100258.31;;;14.54;50.40
31044;BME280;17710;52.520;13.352;2024-02-26T09:37:31;100249.50;;;14.67;50.75
31044;BME280;17710;52.520;13.352;2024-02-26T09:39:57;100259.69;;;14.45;51.50
31044;BME280;17710;52.520;13.352;2024-02-26T09:42:25;100255.75;;;14.66;50.47
31044;BME280;17710;52.520;13.352;2024-02-26T09:44:54;100246.97;;;14.80;50.48
31044;BME280;17710;52.520;13.352;2024-02-26T09:47:23;100247.25;;;15.04;49.47
31044;BME280;17710;52.520;13.352;2024-02-26T09:49:49;100253.81;;;15.12;48.95
31044;BME280;17710;52.520;13.352;2024-02-26T09:52:19;100255.44;;;15.15;48.81
31044;BME280;17710;52.520;13.352;2024-02-26T09:54:47;100254.66;;;14.99;49.10
31044;BME280;17710;52.520;13.352;2024-02-26T09:57:15;100257.91;;;15.18;48.83
31044;BME280;17710;52.520;13.352;2024-02-26T09:59:43;100258.66;;;15.48;48.03
31044;BME280;17710;52.520;13.352;2024-02-26T10:02:12;100262.34;;;15.46;47.17
31044;BME280;17710;52.520;13.352;2024-02-26T10:04:41;100265.69;;;15.64;47.06
31044;BME280;17710;52.520;13.352;2024-02-26T10:07:10;100257.81;;;15.89;46.65
31044;BME280;17710;52.520;13.352;2024-02-26T10:09:37;100268.69;;;15.86;46.89
31044;BME280;17710;52.520;13.352;2024-02-26T10:12:04;100268.13;;;15.81;47.30
31044;BME280;17710;52.520;13.352;2024-02-26T10:14:31;100265.63;;;15.92;46.61
31044;BME280;17710;52.520;13.352;2024-02-26T10:16:58;100269.75;;;16.10;46.80
31044;BME280;17710;52.520;13.352;2024-02-26T10:19:26;100266.97;;;15.85;46.60
31044;BME280;17710;52.520;13.352;2024-02-26T10:21:58;100265.94;;;16.14;46.25
31044;BME280;17710;52.520;13.352;2024-02-26T10:24:24;100255.50;;;16.24;45.67
31044;BME280;17710;52.520;13.352;2024-02-26T10:26:52;100258.34;;;16.48;45.52
31044;BME280;17710;52.520;13.352;2024-02-26T10:29:18;100261.72;;;16.37;45.08
31044;BME280;17710;52.520;13.352;2024-02-26T10:31:46;100263.34;;;16.40;45.38
31044;BME280;17710;52.520;13.352;2024-02-26T10:34:12;100259.44;;;16.58;44.79
31044;BME280;17710;52.520;13.352;2024-02-26T10:36:41;100272.50;;;16.75;44.62
31044;BME280;17710;52.520;13.352;2024-02-26T10:39:11;100260.22;;;16.60;44.60
31044;BME280;17710;52.520;13.352;2024-02-26T10:41:39;100261.31;;;16.95;44.21
31044;BME280;17710;52.520;13.352;2024-02-26T10:44:08;100263.34;;;16.79;43.74
31044;BME280;17710;52.520;13.352;2024-02-26T10:46:36;100270.06;;;16.72;44.04
31044;BME280;17710;52.520;13.352;2024-02-26T10:49:04;100255.66;;;16.87;44.02
31044;BME280;17710;52.520;13.352;2024-02-26T10:51:31;100261.56;;;16.53;42.96
31044;BME280;17710;52.520;13.352;2024-02-26T10:54:02;100267.50;;;16.70;43.57
31044;BME280;17710;52.520;13.352;2024-02-26T10:56:34;100269.53;;;16.80;43.55
31044;BME280;17710;52.520;13.352;2024-02-26T10:59:03;100267.16;;;16.62;43.45
31044;BME280;17710;52.520;13.352;2024-02-26T11:01:30;100257.63;;;16.58;44.05
31044;BME280;17710;52.520;13.352;2024-02-26T11:03:57;100263.03;;;16.44;44.50
31044;BME280;17710;52.520;13.352;2024-02-26T11:06:26;100265.88;;;16.81;43.35
31044;BME280;17710;52.520;13.352;2024-02-26T11:08:53;100255.28;;;16.54;43.53
31044;BME280;17710;52.520;13.352;2024-02-26T11:11:20;100258.31;;;16.74;43.36
31044;BME280;17710;52.520;13.352;2024-02-26T11:13:50;100252.88;;;16.89;42.56
31044;BME280;17710;52.520;13.352;2024-02-26T11:16:18;100267.94;;;16.77;42.89
31044;BME280;17710;52.520;13.352;2024-02-26T11:18:46;100260.25;;;16.85;42.86
31044;BME280;17710;52.520;13.352;2024-02-26T11:21:15;100261.72;;;16.77;42.78
31044;BME280;17710;52.520;13.352;2024-02-26T11:23:42;100262.81;;;16.87;42.90
31044;BME280;17710;52.520;13.352;2024-02-26T11:26:09;100264.06;;;16.94;42.90
31044;BME280;17710;52.520;13.352;2024-02-26T11:28:37;100268.88;;;17.01;42.94
31044;BME280;17710;52.520;13.352;2024-02-26T11:31:06;100264.53;;;17.26;42.53
31044;BME280;17710;52.520;13.352;2024-02-26T11:33:34;100256.38;;;17.27;42.60
31044;BME280;17710;52.520;13.352;2024-02-26T11:36:02;100265.78;;;17.07;42.31
31044;BME280;17710;52.520;13.352;2024-02-26T11:38:29;100263.78;;;17.24;42.16
31044;BME280;17710;52.520;13.352;2024-02-26T11:40:55;100265.06;;;17.18;42.49
31044;BME280;17710;52.520;13.352;2024-02-26T11:43:23;100257.13;;;17.42;41.83
31044;BME280;17710;52.520;13.352;2024-02-26T11:45:50;100265.44;;;17.50;41.86
31044;BME280;17710;52.520;13.352;2024-02-26T11:48:23;100257.22;;;17.40;41.96
31044;BME280;17710;52.520;13.352;2024-02-26T11:50:51;100254.69;;;17.39;42.50
31044;BME280;17710;52.520;13.352;2024-02-26T11:53:23;100256.06;;;17.32;42.76
31044;BME280;17710;52.520;13.352;2024-02-26T11:56:13;100255.00;;;17.34;42.83
31044;BME280;17710;52.520;13.352;2024-02-26T11:58:39;100258.97;;;17.03;43.25
31044;BME280;17710;52.520;13.352;2024-02-26T12:01:36;100262.16;;;17.08;43.35
31044;BME280;17710;52.520;13.352;2024-02-26T12:04:04;100270.38;;;17.43;42.90
31044;BME280;17710;52.520;13.352;2024-02-26T12:06:31;100264.16;;;17.43;43.03
31044;BME280;17710;52.520;13.352;2024-02-26T12:08:58;100263.22;;;17.44;42.18
31044;BME280;17710;52.520;13.352;2024-02-26T12:11:27;100263.84;;;17.35;42.86
31044;BME280;17710;52.520;13.352;2024-02-26T12:13:55;100269.06;;;17.49;42.93
31044;BME280;17710;52.520;13.352;2024-02-26T12:16:35;100256.06;;;17.44;42.81
31044;BME280;17710;52.520;13.352;2024-02-26T12:19:05;100264.75;;;17.59;42.37
31044;BME280;17710;52.520;13.352;2024-02-26T12:21:34;100268.88;;;17.65;42.23
31044;BME280;17710;52.520;13.352;2024-02-26T12:24:14;100272.25;;;17.67;41.90
31044;BME280;17710;52.520;13.352;2024-02-26T12:26:41;100269.06;;;17.62;41.69
31044;BME280;17710;52.520;13.352;2024-02-26T12:29:08;100267.38;;;17.61;41.62
31044;BME280;17710;52.520;13.352;2024-02-26T12:31:35;100271.81;;;17.73;41.38
31044;BME280;17710;52.520;13.352;2024-02-26T12:34:05;100274.34;;;17.87;41.02
31044;BME280;17710;52.520;13.352;2024-02-26T12:36:33;100275.47;;;17.72;41.16
31044;BME280;17710;52.520;13.352;2024-02-26T12:39:00;100275.44;;;17.59;41.54
31044;BME280;17710;52.520;13.352;2024-02-26T12:41:31;100281.44;;;17.75;41.09
31044;BME280;17710;52.520;13.352;2024-02-26T12:43:57;100289.56;;;17.74;40.96
31044;BME280;17710;52.520;13.352;2024-02-26T12:46:24;100279.75;;;17.62;40.70